sensor_id;sensor_type;location;lat;lon;timestamp;P1;durP1;ratioP1;P2;durP2;ratioP2
55931;SDS011;41837;55.700;37.984;2022-12-13T00:01:35;10.60;;;5.70;;
55931;SDS011;41837;55.700;37.984;2022-12-13T00:04:03;9.82;;;5.22;;
55931;SDS011;41837;55.700;37.984;2022-12-13T00:06:31;11.10;;;5.43;;
55931;SDS011;41837;55.700;37.984;2022-12-13T00:08:58;10.73;;;5.38;;
55931;SDS011;41837;55.700;37.984;2022-12-13T00:11:27;12.70;;;5.63;;
55931;SDS011;41837;55.700;37.984;2022-12-13T00:13:54;11.85;;;5.90;;
55931;SDS011;41837;55.700;37.984;2022-12-13T00:16:23;13.82;;;5.93;;
55931;SDS011;41837;55.700;37.984;2022-12-13T00:18:54;11.15;;;6.22;;
55931;SDS011;41837;55.700;37.984;2022-12-13T00:21:23;11.98;;;5.97;;
55931;SDS011;41837;55.700;37.984;2022-12-13T00:23:55;11.38;;;6.45;;
55931;SDS011;41837;55.700;37.984;2022-12-13T00:26:24;12.07;;;6.32;;
55931;SDS011;41837;55.700;37.984;2022-12-13T00:28:52;14.30;;;6.75;;
55931;SDS011;41837;55.700;37.984;2022-12-13T00:31:21;11.98;;;6.10;;
55931;SDS011;41837;55.700;37.984;2022-12-13T00:33:48;11.68;;;5.47;;
55931;SDS011;41837;55.700;37.984;2022-12-13T00:36:15;11.80;;;6.10;;
55931;SDS011;41837;55.700;37.984;2022-12-13T00:38:41;11.18;;;5.38;;
55931;SDS011;41837;55.700;37.984;2022-12-13T00:41:08;14.65;;;6.65;;
55931;SDS011;41837;55.700;37.984;2022-12-13T00:43:44;9.98;;;5.82;;
55931;SDS011;41837;55.700;37.984;2022-12-13T00:46:12;12.77;;;6.07;;
55931;SDS011;41837;55.700;37.984;2022-12-13T00:48:40;11.50;;;5.47;;
55931;SDS011;41837;55.700;37.984;2022-12-13T00:51:08;11.68;;;5.95;;
55931;SDS011;41837;55.700;37.984;2022-12-13T00:53:36;9.10;;;5.20;;
55931;SDS011;41837;55.700;37.984;2022-12-13T00:56:03;12.60;;;6.55;;
55931;SDS011;41837;55.700;37.984;2022-12-13T00:58:30;10.35;;;5.88;;
55931;SDS011;41837;55.700;37.984;2022-12-13T01:01:07;10.55;;;6.40;;
55931;SDS011;41837;55.700;37.984;2022-12-13T01:03:36;13.15;;;6.28;;
55931;SDS011;41837;55.700;37.984;2022-12-13T01:06:13;15.13;;;7.85;;
55931;SDS011;41837;55.700;37.984;2022-12-13T01:08:45;15.95;;;7.05;;
55931;SDS011;41837;55.700;37.984;2022-12-13T01:11:12;15.93;;;6.97;;
55931;SDS011;41837;55.700;37.984;2022-12-13T01:13:39;12.90;;;6.72;;
55931;SDS011;41837;55.700;37.984;2022-12-13T01:16:06;14.55;;;6.55;;
55931;SDS011;41837;55.700;37.984;2022-12-13T01:18:36;13.13;;;6.43;;
55931;SDS011;41837;55.700;37.984;2022-12-13T01:21:04;13.85;;;6.80;;
55931;SDS011;41837;55.700;37.984;2022-12-13T01:23:38;12.13;;;6.88;;
55931;SDS011;41837;55.700;37.984;2022-12-13T01:26:05;10.88;;;5.32;;
55931;SDS011;41837;55.700;37.984;2022-12-13T01:28:34;11.55;;;6.75;;
55931;SDS011;41837;55.700;37.984;2022-12-13T01:31:02;11.95;;;6.50;;
55931;SDS011;41837;55.700;37.984;2022-12-13T01:33:31;12.77;;;6.57;;
55931;SDS011;41837;55.700;37.984;2022-12-13T01:36:01;13.90;;;7.15;;
55931;SDS011;41837;55.700;37.984;2022-12-13T01:38:30;12.70;;;6.60;;
55931;SDS011;41837;55.700;37.984;2022-12-13T01:40:56;13.63;;;6.88;;
55931;SDS011;41837;55.700;37.984;2022-12-13T01:46:13;15.00;;;7.38;;
55931;SDS011;41837;55.700;37.984;2022-12-13T01:48:43;15.10;;;7.32;;
55931;SDS011;41837;55.700;37.984;2022-12-13T01:51:16;13.53;;;6.87;;
55931;SDS011;41837;55.700;37.984;2022-12-13T01:53:46;13.15;;;7.25;;
55931;SDS011;41837;55.700;37.984;2022-12-13T01:56:18;12.63;;;6.82;;
55931;SDS011;41837;55.700;37.984;2022-12-13T01:58:49;17.08;;;7.65;;
55931;SDS011;41837;55.700;37.984;2022-12-13T02:01:19;15.25;;;7.45;;
55931;SDS011;41837;55.700;37.984;2022-12-13T02:03:48;15.10;;;7.30;;
55931;SDS011;41837;55.700;37.984;2022-12-13T02:06:18;14.40;;;6.82;;
55931;SDS011;41837;55.700;37.984;2022-12-13T02:09:08;14.23;;;6.88;;
55931;SDS011;41837;55.700;37.984;2022-12-13T02:11:37;14.75;;;7.80;;
55931;SDS011;41837;55.700;37.984;2022-12-13T02:14:06;15.30;;;7.32;;
55931;SDS011;41837;55.700;37.984;2022-12-13T02:25:48;22.02;;;9.20;;
55931;SDS011;41837;55.700;37.984;2022-12-13T02:30:43;15.02;;;8.07;;
55931;SDS011;41837;55.700;37.984;2022-12-13T02:41:39;16.95;;;8.20;;
55931;SDS011;41837;55.700;37.984;2022-12-13T02:46:50;15.80;;;7.45;;
55931;SDS011;41837;55.700;37.984;2022-12-13T02:49:23;15.80;;;8.40;;
55931;SDS011;41837;55.700;37.984;2022-12-13T02:51:53;19.50;;;9.20;;
55931;SDS011;41837;55.700;37.984;2022-12-13T02:54:22;19.02;;;9.63;;
55931;SDS011;41837;55.700;37.984;2022-12-13T02:56:56;15.07;;;7.32;;
55931;SDS011;41837;55.700;37.984;2022-12-13T03:02:16;17.98;;;9.18;;
55931;SDS011;41837;55.700;37.984;2022-12-13T03:08:09;18.33;;;9.18;;
55931;SDS011;41837;55.700;37.984;2022-12-13T03:10:41;15.73;;;8.20;;
55931;SDS011;41837;55.700;37.984;2022-12-13T03:13:17;20.15;;;10.40;;
55931;SDS011;41837;55.700;37.984;2022-12-13T03:16:06;19.83;;;10.30;;
55931;SDS011;41837;55.700;37.984;2022-12-13T03:18:50;18.42;;;8.82;;
55931;SDS011;41837;55.700;37.984;2022-12-13T03:21:20;18.38;;;8.43;;
55931;SDS011;41837;55.700;37.984;2022-12-13T03:23:48;23.45;;;10.15;;
55931;SDS011;41837;55.700;37.984;2022-12-13T03:26:16;20.88;;;10.35;;
55931;SDS011;41837;55.700;37.984;2022-12-13T03:28:46;22.92;;;11.13;;
55931;SDS011;41837;55.700;37.984;2022-12-13T03:31:13;25.08;;;12.02;;
55931;SDS011;41837;55.700;37.984;2022-12-13T03:33:38;25.67;;;11.93;;
55931;SDS011;41837;55.700;37.984;2022-12-13T03:36:05;21.10;;;10.82;;
55931;SDS011;41837;55.700;37.984;2022-12-13T03:38:31;26.90;;;11.63;;
55931;SDS011;41837;55.700;37.984;2022-12-13T03:41:02;24.50;;;11.73;;
55931;SDS011;41837;55.700;37.984;2022-12-13T03:43:31;27.38;;;12.45;;
55931;SDS011;41837;55.700;37.984;2022-12-13T03:45:59;25.10;;;12.10;;
55931;SDS011;41837;55.700;37.984;2022-12-13T03:48:26;24.50;;;12.88;;
55931;SDS011;41837;55.700;37.984;2022-12-13T03:50:52;27.45;;;11.70;;
55931;SDS011;41837;55.700;37.984;2022-12-13T03:53:20;29.48;;;12.88;;
55931;SDS011;41837;55.700;37.984;2022-12-13T03:55:47;25.85;;;11.52;;
55931;SDS011;41837;55.700;37.984;2022-12-13T03:58:17;24.83;;;12.50;;
55931;SDS011;41837;55.700;37.984;2022-12-13T04:00:43;30.45;;;12.75;;
55931;SDS011;41837;55.700;37.984;2022-12-13T04:03:10;26.85;;;12.75;;
55931;SDS011;41837;55.700;37.984;2022-12-13T04:05:36;22.10;;;11.85;;
55931;SDS011;41837;55.700;37.984;2022-12-13T04:08:02;27.67;;;12.88;;
55931;SDS011;41837;55.700;37.984;2022-12-13T04:10:28;24.77;;;12.10;;
55931;SDS011;41837;55.700;37.984;2022-12-13T04:12:55;31.38;;;13.05;;
55931;SDS011;41837;55.700;37.984;2022-12-13T04:15:41;25.05;;;11.73;;
55931;SDS011;41837;55.700;37.984;2022-12-13T04:18:14;23.27;;;11.57;;
55931;SDS011;41837;55.700;37.984;2022-12-13T04:20:42;26.45;;;12.45;;
55931;SDS011;41837;55.700;37.984;2022-12-13T04:23:08;25.00;;;11.98;;
55931;SDS011;41837;55.700;37.984;2022-12-13T04:25:35;27.63;;;12.05;;
55931;SDS011;41837;55.700;37.984;2022-12-13T04:28:04;28.27;;;12.27;;
55931;SDS011;41837;55.700;37.984;2022-12-13T04:30:31;25.40;;;11.90;;
55931;SDS011;41837;55.700;37.984;2022-12-13T04:32:58;29.45;;;12.90;;
55931;SDS011;41837;55.700;37.984;2022-12-13T04:35:25;31.15;;;13.20;;
55931;SDS011;41837;55.700;37.984;2022-12-13T04:37:51;28.75;;;12.32;;
55931;SDS011;41837;55.700;37.984;2022-12-13T04:40:17;27.92;;;12.98;;
55931;SDS011;41837;55.700;37.984;2022-12-13T04:42:45;32.53;;;12.93;;
55931;SDS011;41837;55.700;37.984;2022-12-13T04:45:15;31.75;;;14.38;;
55931;SDS011;41837;55.700;37.984;2022-12-13T04:47:43;31.33;;;13.23;;
55931;SDS011;41837;55.700;37.984;2022-12-13T04:50:09;31.65;;;15.00;;
55931;SDS011;41837;55.700;37.984;2022-12-13T04:52:36;32.78;;;14.38;;
55931;SDS011;41837;55.700;37.984;2022-12-13T04:55:04;32.95;;;14.88;;
55931;SDS011;41837;55.700;37.984;2022-12-13T04:57:31;34.13;;;14.98;;
55931;SDS011;41837;55.700;37.984;2022-12-13T04:59:58;34.53;;;14.63;;
55931;SDS011;41837;55.700;37.984;2022-12-13T05:02:24;28.55;;;13.20;;
55931;SDS011;41837;55.700;37.984;2022-12-13T05:04:51;31.40;;;14.73;;
55931;SDS011;41837;55.700;37.984;2022-12-13T05:07:17;30.85;;;14.27;;
55931;SDS011;41837;55.700;37.984;2022-12-13T05:09:44;32.90;;;14.60;;
55931;SDS011;41837;55.700;37.984;2022-12-13T05:12:10;31.40;;;14.38;;
55931;SDS011;41837;55.700;37.984;2022-12-13T05:14:39;29.95;;;13.70;;
55931;SDS011;41837;55.700;37.984;2022-12-13T05:17:05;29.42;;;13.00;;
55931;SDS011;41837;55.700;37.984;2022-12-13T05:19:32;30.08;;;14.07;;
55931;SDS011;41837;55.700;37.984;2022-12-13T05:21:58;31.92;;;14.35;;
55931;SDS011;41837;55.700;37.984;2022-12-13T05:24:25;30.70;;;14.70;;
55931;SDS011;41837;55.700;37.984;2022-12-13T05:26:51;36.13;;;15.93;;
55931;SDS011;41837;55.700;37.984;2022-12-13T05:29:17;30.30;;;14.48;;
55931;SDS011;41837;55.700;37.984;2022-12-13T05:31:44;31.75;;;13.95;;
55931;SDS011;41837;55.700;37.984;2022-12-13T05:34:10;32.60;;;13.80;;
55931;SDS011;41837;55.700;37.984;2022-12-13T05:36:37;29.05;;;13.27;;
55931;SDS011;41837;55.700;37.984;2022-12-13T05:39:03;30.20;;;13.32;;
55931;SDS011;41837;55.700;37.984;2022-12-13T05:41:30;27.88;;;13.43;;
55931;SDS011;41837;55.700;37.984;2022-12-13T05:44:00;28.65;;;13.98;;
55931;SDS011;41837;55.700;37.984;2022-12-13T05:46:26;28.10;;;12.93;;
55931;SDS011;41837;55.700;37.984;2022-12-13T05:48:52;31.75;;;13.70;;
55931;SDS011;41837;55.700;37.984;2022-12-13T05:51:18;23.52;;;11.25;;
55931;SDS011;41837;55.700;37.984;2022-12-13T05:53:44;29.38;;;13.90;;
55931;SDS011;41837;55.700;37.984;2022-12-13T05:56:12;32.75;;;13.63;;
55931;SDS011;41837;55.700;37.984;2022-12-13T05:58:39;31.52;;;14.32;;
55931;SDS011;41837;55.700;37.984;2022-12-13T06:01:10;28.30;;;12.48;;
55931;SDS011;41837;55.700;37.984;2022-12-13T06:03:38;29.25;;;15.05;;
55931;SDS011;41837;55.700;37.984;2022-12-13T06:06:05;31.70;;;14.95;;
55931;SDS011;41837;55.700;37.984;2022-12-13T06:08:48;28.98;;;14.48;;
55931;SDS011;41837;55.700;37.984;2022-12-13T06:11:16;29.33;;;13.90;;
55931;SDS011;41837;55.700;37.984;2022-12-13T06:13:42;31.70;;;15.07;;
55931;SDS011;41837;55.700;37.984;2022-12-13T06:16:09;34.90;;;15.35;;
55931;SDS011;41837;55.700;37.984;2022-12-13T06:18:36;30.83;;;13.98;;
55931;SDS011;41837;55.700;37.984;2022-12-13T06:21:04;34.72;;;15.50;;
55931;SDS011;41837;55.700;37.984;2022-12-13T06:23:32;37.17;;;16.88;;
55931;SDS011;41837;55.700;37.984;2022-12-13T06:26:01;38.58;;;17.98;;
55931;SDS011;41837;55.700;37.984;2022-12-13T06:28:28;37.47;;;18.00;;
55931;SDS011;41837;55.700;37.984;2022-12-13T06:30:57;35.60;;;17.65;;
55931;SDS011;41837;55.700;37.984;2022-12-13T06:33:24;45.63;;;18.55;;
55931;SDS011;41837;55.700;37.984;2022-12-13T06:35:51;38.72;;;18.33;;
55931;SDS011;41837;55.700;37.984;2022-12-13T06:38:21;36.78;;;16.95;;
55931;SDS011;41837;55.700;37.984;2022-12-13T06:40:48;40.78;;;18.52;;
55931;SDS011;41837;55.700;37.984;2022-12-13T06:43:14;34.03;;;16.50;;
55931;SDS011;41837;55.700;37.984;2022-12-13T06:45:40;31.17;;;16.45;;
55931;SDS011;41837;55.700;37.984;2022-12-13T06:48:06;30.30;;;15.98;;
55931;SDS011;41837;55.700;37.984;2022-12-13T06:50:33;28.83;;;13.65;;
55931;SDS011;41837;55.700;37.984;2022-12-13T06:52:59;29.77;;;13.35;;
55931;SDS011;41837;55.700;37.984;2022-12-13T06:55:25;30.00;;;15.52;;
55931;SDS011;41837;55.700;37.984;2022-12-13T06:57:52;29.77;;;15.30;;
55931;SDS011;41837;55.700;37.984;2022-12-13T07:00:19;26.38;;;14.23;;
55931;SDS011;41837;55.700;37.984;2022-12-13T07:02:50;24.30;;;13.07;;
55931;SDS011;41837;55.700;37.984;2022-12-13T07:05:16;26.83;;;15.13;;
55931;SDS011;41837;55.700;37.984;2022-12-13T07:07:43;26.90;;;13.05;;
55931;SDS011;41837;55.700;37.984;2022-12-13T07:10:12;27.33;;;13.63;;
55931;SDS011;41837;55.700;37.984;2022-12-13T07:12:38;25.70;;;13.10;;
55931;SDS011;41837;55.700;37.984;2022-12-13T07:15:05;24.17;;;12.60;;
55931;SDS011;41837;55.700;37.984;2022-12-13T07:17:31;22.55;;;12.60;;
55931;SDS011;41837;55.700;37.984;2022-12-13T07:19:58;22.13;;;11.35;;
55931;SDS011;41837;55.700;37.984;2022-12-13T07:22:24;24.13;;;13.35;;
55931;SDS011;41837;55.700;37.984;2022-12-13T07:24:51;22.00;;;11.80;;
55931;SDS011;41837;55.700;37.984;2022-12-13T07:27:17;21.08;;;11.48;;
55931;SDS011;41837;55.700;37.984;2022-12-13T07:29:44;22.40;;;11.77;;
55931;SDS011;41837;55.700;37.984;2022-12-13T07:32:10;22.67;;;13.45;;
55931;SDS011;41837;55.700;37.984;2022-12-13T07:34:36;24.00;;;13.23;;
55931;SDS011;41837;55.700;37.984;2022-12-13T07:37:02;24.58;;;13.93;;
55931;SDS011;41837;55.700;37.984;2022-12-13T07:39:28;21.77;;;11.45;;
55931;SDS011;41837;55.700;37.984;2022-12-13T07:41:56;22.67;;;13.50;;
55931;SDS011;41837;55.700;37.984;2022-12-13T07:44:25;24.58;;;12.75;;
55931;SDS011;41837;55.700;37.984;2022-12-13T07:46:51;24.00;;;13.00;;
55931;SDS011;41837;55.700;37.984;2022-12-13T07:49:17;22.20;;;13.30;;
55931;SDS011;41837;55.700;37.984;2022-12-13T07:51:46;21.98;;;12.93;;
55931;SDS011;41837;55.700;37.984;2022-12-13T07:54:12;19.38;;;10.80;;
55931;SDS011;41837;55.700;37.984;2022-12-13T07:56:39;24.13;;;11.52;;
55931;SDS011;41837;55.700;37.984;2022-12-13T08:03:13;24.25;;;12.57;;
55931;SDS011;41837;55.700;37.984;2022-12-13T08:06:02;18.83;;;9.82;;
55931;SDS011;41837;55.700;37.984;2022-12-13T08:09:07;20.30;;;11.23;;
55931;SDS011;41837;55.700;37.984;2022-12-13T08:12:03;19.75;;;11.07;;
55931;SDS011;41837;55.700;37.984;2022-12-13T08:14:43;21.30;;;11.35;;
55931;SDS011;41837;55.700;37.984;2022-12-13T08:17:25;24.95;;;13.70;;
55931;SDS011;41837;55.700;37.984;2022-12-13T08:20:10;25.00;;;14.60;;
55931;SDS011;41837;55.700;37.984;2022-12-13T08:22:58;25.48;;;13.65;;
55931;SDS011;41837;55.700;37.984;2022-12-13T08:25:36;22.98;;;14.48;;
55931;SDS011;41837;55.700;37.984;2022-12-13T08:28:11;22.38;;;13.18;;
55931;SDS011;41837;55.700;37.984;2022-12-13T08:30:52;25.85;;;14.43;;
55931;SDS011;41837;55.700;37.984;2022-12-13T08:36:15;34.33;;;18.75;;
55931;SDS011;41837;55.700;37.984;2022-12-13T08:38:53;31.13;;;17.73;;
55931;SDS011;41837;55.700;37.984;2022-12-13T08:41:32;24.70;;;13.65;;
55931;SDS011;41837;55.700;37.984;2022-12-13T08:44:09;26.45;;;14.27;;
55931;SDS011;41837;55.700;37.984;2022-12-13T08:46:47;32.92;;;15.45;;
55931;SDS011;41837;55.700;37.984;2022-12-13T08:49:25;36.63;;;17.45;;
55931;SDS011;41837;55.700;37.984;2022-12-13T08:52:04;38.85;;;18.80;;
55931;SDS011;41837;55.700;37.984;2022-12-13T08:54:44;31.13;;;17.17;;
55931;SDS011;41837;55.700;37.984;2022-12-13T08:57:25;30.38;;;16.42;;
55931;SDS011;41837;55.700;37.984;2022-12-13T09:00:10;27.02;;;15.07;;
55931;SDS011;41837;55.700;37.984;2022-12-13T09:02:56;28.48;;;15.98;;
55931;SDS011;41837;55.700;37.984;2022-12-13T09:05:41;24.00;;;12.77;;
55931;SDS011;41837;55.700;37.984;2022-12-13T09:08:18;21.33;;;12.90;;
55931;SDS011;41837;55.700;37.984;2022-12-13T09:10:58;28.27;;;12.90;;
55931;SDS011;41837;55.700;37.984;2022-12-13T09:13:44;18.88;;;11.45;;
55931;SDS011;41837;55.700;37.984;2022-12-13T09:16:23;17.73;;;10.77;;
55931;SDS011;41837;55.700;37.984;2022-12-13T09:19:02;17.83;;;10.60;;
55931;SDS011;41837;55.700;37.984;2022-12-13T09:21:42;16.95;;;10.30;;
55931;SDS011;41837;55.700;37.984;2022-12-13T09:24:20;16.92;;;9.00;;
55931;SDS011;41837;55.700;37.984;2022-12-13T09:26:58;15.35;;;9.13;;
55931;SDS011;41837;55.700;37.984;2022-12-13T09:29:34;16.65;;;9.10;;
55931;SDS011;41837;55.700;37.984;2022-12-13T09:36:01;20.20;;;11.43;;
55931;SDS011;41837;55.700;37.984;2022-12-13T09:38:43;16.80;;;9.82;;
55931;SDS011;41837;55.700;37.984;2022-12-13T09:41:25;14.80;;;9.57;;
55931;SDS011;41837;55.700;37.984;2022-12-13T09:44:32;15.63;;;8.88;;
55931;SDS011;41837;55.700;37.984;2022-12-13T09:47:40;18.48;;;8.48;;
55931;SDS011;41837;55.700;37.984;2022-12-13T09:50:27;12.55;;;8.40;;
55931;SDS011;41837;55.700;37.984;2022-12-13T09:53:05;14.27;;;9.13;;
55931;SDS011;41837;55.700;37.984;2022-12-13T09:59:56;15.80;;;8.32;;
55931;SDS011;41837;55.700;37.984;2022-12-13T10:02:53;12.32;;;7.78;;
55931;SDS011;41837;55.700;37.984;2022-12-13T10:08:11;15.15;;;9.38;;
55931;SDS011;41837;55.700;37.984;2022-12-13T10:10:49;15.57;;;9.60;;
55931;SDS011;41837;55.700;37.984;2022-12-13T10:21:52;14.63;;;8.70;;
55931;SDS011;41837;55.700;37.984;2022-12-13T10:24:23;15.60;;;8.80;;
55931;SDS011;41837;55.700;37.984;2022-12-13T10:27:13;16.05;;;8.90;;
55931;SDS011;41837;55.700;37.984;2022-12-13T10:30:10;14.02;;;8.13;;
55931;SDS011;41837;55.700;37.984;2022-12-13T10:32:55;14.07;;;7.97;;
55931;SDS011;41837;55.700;37.984;2022-12-13T10:35:39;15.68;;;9.05;;
55931;SDS011;41837;55.700;37.984;2022-12-13T10:41:39;23.42;;;12.98;;
55931;SDS011;41837;55.700;37.984;2022-12-13T10:44:21;29.58;;;15.57;;
55931;SDS011;41837;55.700;37.984;2022-12-13T10:47:01;30.38;;;15.80;;
55931;SDS011;41837;55.700;37.984;2022-12-13T10:50:18;27.25;;;14.45;;
55931;SDS011;41837;55.700;37.984;2022-12-13T10:53:02;27.00;;;14.52;;
55931;SDS011;41837;55.700;37.984;2022-12-13T10:55:38;27.73;;;13.82;;
55931;SDS011;41837;55.700;37.984;2022-12-13T10:58:17;30.08;;;15.85;;
55931;SDS011;41837;55.700;37.984;2022-12-13T11:00:51;30.00;;;16.35;;
55931;SDS011;41837;55.700;37.984;2022-12-13T11:03:40;33.78;;;16.02;;
55931;SDS011;41837;55.700;37.984;2022-12-13T11:06:41;48.75;;;20.33;;
55931;SDS011;41837;55.700;37.984;2022-12-13T11:09:25;39.75;;;18.45;;
55931;SDS011;41837;55.700;37.984;2022-12-13T11:12:02;37.10;;;17.15;;
55931;SDS011;41837;55.700;37.984;2022-12-13T11:15:02;41.10;;;17.63;;
55931;SDS011;41837;55.700;37.984;2022-12-13T11:17:37;35.38;;;15.57;;
55931;SDS011;41837;55.700;37.984;2022-12-13T11:20:33;28.60;;;14.88;;
55931;SDS011;41837;55.700;37.984;2022-12-13T11:26:09;23.98;;;11.93;;
55931;SDS011;41837;55.700;37.984;2022-12-13T11:31:26;18.75;;;9.10;;
55931;SDS011;41837;55.700;37.984;2022-12-13T11:40:26;15.13;;;7.50;;
55931;SDS011;41837;55.700;37.984;2022-12-13T11:46:03;17.10;;;8.38;;
55931;SDS011;41837;55.700;37.984;2022-12-13T11:48:57;22.92;;;9.73;;
55931;SDS011;41837;55.700;37.984;2022-12-13T11:51:58;34.60;;;16.27;;
55931;SDS011;41837;55.700;37.984;2022-12-13T11:57:56;22.77;;;12.55;;
55931;SDS011;41837;55.700;37.984;2022-12-13T12:00:39;32.33;;;14.13;;
55931;SDS011;41837;55.700;37.984;2022-12-13T12:03:50;23.02;;;13.27;;
55931;SDS011;41837;55.700;37.984;2022-12-13T12:06:41;31.02;;;17.10;;
55931;SDS011;41837;55.700;37.984;2022-12-13T12:09:28;26.25;;;13.93;;
55931;SDS011;41837;55.700;37.984;2022-12-13T12:12:12;36.42;;;16.92;;
55931;SDS011;41837;55.700;37.984;2022-12-13T12:14:53;32.50;;;16.50;;
55931;SDS011;41837;55.700;37.984;2022-12-13T12:17:31;23.77;;;10.95;;
55931;SDS011;41837;55.700;37.984;2022-12-13T12:20:14;29.90;;;11.63;;
55931;SDS011;41837;55.700;37.984;2022-12-13T12:23:16;24.55;;;11.40;;
55931;SDS011;41837;55.700;37.984;2022-12-13T12:26:11;20.77;;;10.82;;
55931;SDS011;41837;55.700;37.984;2022-12-13T12:28:57;22.92;;;11.88;;
55931;SDS011;41837;55.700;37.984;2022-12-13T12:32:07;26.75;;;13.13;;
55931;SDS011;41837;55.700;37.984;2022-12-13T12:38:13;43.75;;;20.23;;
55931;SDS011;41837;55.700;37.984;2022-12-13T12:43:41;21.60;;;9.25;;
55931;SDS011;41837;55.700;37.984;2022-12-13T12:46:19;21.00;;;10.07;;
55931;SDS011;41837;55.700;37.984;2022-12-13T13:02:20;24.42;;;12.25;;
55931;SDS011;41837;55.700;37.984;2022-12-13T13:05:01;16.52;;;8.55;;
55931;SDS011;41837;55.700;37.984;2022-12-13T13:08:19;19.55;;;9.07;;
55931;SDS011;41837;55.700;37.984;2022-12-13T13:11:02;23.80;;;10.00;;
55931;SDS011;41837;55.700;37.984;2022-12-13T13:13:45;23.90;;;10.23;;
55931;SDS011;41837;55.700;37.984;2022-12-13T13:16:56;25.98;;;10.73;;
55931;SDS011;41837;55.700;37.984;2022-12-13T13:27:42;24.63;;;11.38;;
55931;SDS011;41837;55.700;37.984;2022-12-13T13:30:20;26.25;;;11.05;;
55931;SDS011;41837;55.700;37.984;2022-12-13T13:32:59;22.90;;;11.00;;
55931;SDS011;41837;55.700;37.984;2022-12-13T13:41:38;21.88;;;10.05;;
55931;SDS011;41837;55.700;37.984;2022-12-13T13:52:56;22.80;;;10.35;;
55931;SDS011;41837;55.700;37.984;2022-12-13T14:02:25;21.88;;;9.90;;
55931;SDS011;41837;55.700;37.984;2022-12-13T14:08:31;28.50;;;10.88;;
55931;SDS011;41837;55.700;37.984;2022-12-13T14:29:30;49.30;;;18.20;;
55931;SDS011;41837;55.700;37.984;2022-12-13T14:32:21;43.97;;;16.38;;
55931;SDS011;41837;55.700;37.984;2022-12-13T14:35:00;58.08;;;18.42;;
55931;SDS011;41837;55.700;37.984;2022-12-13T14:37:34;50.90;;;17.40;;
55931;SDS011;41837;55.700;37.984;2022-12-13T14:40:52;64.28;;;18.75;;
55931;SDS011;41837;55.700;37.984;2022-12-13T14:43:19;54.85;;;17.92;;
55931;SDS011;41837;55.700;37.984;2022-12-13T14:46:00;49.25;;;15.50;;
55931;SDS011;41837;55.700;37.984;2022-12-13T14:48:46;54.28;;;15.43;;
55931;SDS011;41837;55.700;37.984;2022-12-13T14:51:31;53.28;;;16.20;;
55931;SDS011;41837;55.700;37.984;2022-12-13T14:54:05;49.55;;;17.67;;
55931;SDS011;41837;55.700;37.984;2022-12-13T14:57:00;64.03;;;19.52;;
55931;SDS011;41837;55.700;37.984;2022-12-13T14:59:33;63.17;;;21.27;;
55931;SDS011;41837;55.700;37.984;2022-12-13T15:02:05;81.68;;;24.95;;
55931;SDS011;41837;55.700;37.984;2022-12-13T15:04:56;101.00;;;27.75;;
55931;SDS011;41837;55.700;37.984;2022-12-13T15:07:41;99.38;;;31.77;;
55931;SDS011;41837;55.700;37.984;2022-12-13T15:10:19;118.95;;;37.65;;
55931;SDS011;41837;55.700;37.984;2022-12-13T15:12:59;159.27;;;46.13;;
55931;SDS011;41837;55.700;37.984;2022-12-13T15:15:34;159.48;;;47.15;;
55931;SDS011;41837;55.700;37.984;2022-12-13T15:18:18;174.40;;;48.58;;
55931;SDS011;41837;55.700;37.984;2022-12-13T15:20:53;176.45;;;49.55;;
55931;SDS011;41837;55.700;37.984;2022-12-13T15:26:35;127.15;;;42.67;;
55931;SDS011;41837;55.700;37.984;2022-12-13T15:29:09;118.45;;;36.67;;
55931;SDS011;41837;55.700;37.984;2022-12-13T15:31:48;98.10;;;32.30;;
55931;SDS011;41837;55.700;37.984;2022-12-13T15:39:53;111.57;;;35.75;;
55931;SDS011;41837;55.700;37.984;2022-12-13T15:42:45;148.30;;;39.33;;
55931;SDS011;41837;55.700;37.984;2022-12-13T15:45:33;109.20;;;33.35;;
55931;SDS011;41837;55.700;37.984;2022-12-13T15:48:12;95.53;;;27.30;;
55931;SDS011;41837;55.700;37.984;2022-12-13T15:51:14;95.97;;;26.38;;
55931;SDS011;41837;55.700;37.984;2022-12-13T15:57:11;104.80;;;29.67;;
55931;SDS011;41837;55.700;37.984;2022-12-13T16:02:59;92.35;;;28.25;;
55931;SDS011;41837;55.700;37.984;2022-12-13T16:06:08;121.43;;;28.42;;
55931;SDS011;41837;55.700;37.984;2022-12-13T16:08:58;101.35;;;28.50;;
55931;SDS011;41837;55.700;37.984;2022-12-13T16:12:05;108.85;;;27.83;;
55931;SDS011;41837;55.700;37.984;2022-12-13T16:14:39;97.40;;;27.05;;
55931;SDS011;41837;55.700;37.984;2022-12-13T16:17:23;92.38;;;26.42;;
55931;SDS011;41837;55.700;37.984;2022-12-13T16:20:07;86.15;;;25.88;;
55931;SDS011;41837;55.700;37.984;2022-12-13T16:22:44;112.50;;;28.58;;
55931;SDS011;41837;55.700;37.984;2022-12-13T16:25:42;109.13;;;28.50;;
55931;SDS011;41837;55.700;37.984;2022-12-13T16:28:19;126.07;;;29.63;;
55931;SDS011;41837;55.700;37.984;2022-12-13T16:31:13;86.85;;;26.92;;
55931;SDS011;41837;55.700;37.984;2022-12-13T16:33:47;65.53;;;23.77;;
55931;SDS011;41837;55.700;37.984;2022-12-13T16:39:18;52.58;;;20.48;;
55931;SDS011;41837;55.700;37.984;2022-12-13T16:41:55;56.63;;;20.98;;
55931;SDS011;41837;55.700;37.984;2022-12-13T16:44:34;60.83;;;22.10;;
55931;SDS011;41837;55.700;37.984;2022-12-13T16:47:11;59.78;;;21.48;;
55931;SDS011;41837;55.700;37.984;2022-12-13T16:49:51;60.63;;;21.85;;
55931;SDS011;41837;55.700;37.984;2022-12-13T16:52:24;56.35;;;21.52;;
55931;SDS011;41837;55.700;37.984;2022-12-13T16:55:01;52.10;;;21.00;;
55931;SDS011;41837;55.700;37.984;2022-12-13T16:57:34;50.50;;;21.33;;
55931;SDS011;41837;55.700;37.984;2022-12-13T17:00:11;58.75;;;22.88;;
55931;SDS011;41837;55.700;37.984;2022-12-13T17:02:44;47.22;;;20.45;;
55931;SDS011;41837;55.700;37.984;2022-12-13T17:05:16;55.92;;;20.73;;
55931;SDS011;41837;55.700;37.984;2022-12-13T17:07:51;78.50;;;24.58;;
55931;SDS011;41837;55.700;37.984;2022-12-13T17:10:36;65.35;;;21.92;;
55931;SDS011;41837;55.700;37.984;2022-12-13T17:13:27;30.95;;;12.77;;
55931;SDS011;41837;55.700;37.984;2022-12-13T17:16:06;28.50;;;12.18;;
55931;SDS011;41837;55.700;37.984;2022-12-13T17:18:44;36.95;;;15.02;;
55931;SDS011;41837;55.700;37.984;2022-12-13T17:21:20;20.40;;;10.57;;
55931;SDS011;41837;55.700;37.984;2022-12-13T17:24:00;21.45;;;10.02;;
55931;SDS011;41837;55.700;37.984;2022-12-13T17:26:37;19.67;;;8.52;;
55931;SDS011;41837;55.700;37.984;2022-12-13T17:29:10;14.52;;;7.22;;
55931;SDS011;41837;55.700;37.984;2022-12-13T17:31:42;14.60;;;8.00;;
55931;SDS011;41837;55.700;37.984;2022-12-13T17:34:27;13.68;;;7.22;;
55931;SDS011;41837;55.700;37.984;2022-12-13T17:37:24;10.88;;;6.20;;
55931;SDS011;41837;55.700;37.984;2022-12-13T17:39:57;9.73;;;5.85;;
55931;SDS011;41837;55.700;37.984;2022-12-13T17:42:29;12.52;;;6.53;;
55931;SDS011;41837;55.700;37.984;2022-12-13T17:45:02;13.48;;;7.05;;
55931;SDS011;41837;55.700;37.984;2022-12-13T17:47:39;13.38;;;7.18;;